RRR4200 GVAC-SBBR
Flight info
| Callsign | RRR4200 |
|---|---|
| Flight time | N/A |
| Altitude | 34000 |
| Route | DISDA1A BULVO DCT POMAT UN873 VUNOK DCT OPVAR UZ94 VADOP |
| Aircraft | A400/H-SDE2E3FGHIJ4J5M1RWXY/LB1D1 |
Departure
| Time | 2026-05-09 13:39 |
|---|---|
| Airport | Amílcar Cabral International Airport (GVAC) |
Arrival
| Time | N/A |
|---|---|
| Airport | Presidente Juscelino Kubitschek International Airport (SBBR) |
| Time | Latitude | Longitude | Altitude | Speed | Heading |
|---|---|---|---|---|---|
| 2026-05-09 13:28 | 16.73166 | -22.94509 | 160 ft | 0 kts | 90° |
| 2026-05-09 13:28 | 16.73166 | -22.94505 | 160 ft | 0 kts | 90° |
| 2026-05-09 13:35 | 16.73167 | -22.94503 | 160 ft | 1 kts | 71° |
| 2026-05-09 13:35 | 16.73180 | -22.94506 | 160 ft | 2 kts | 325° |
| 2026-05-09 13:35 | 16.73168 | -22.94544 | 160 ft | 10 kts | 245° |
| 2026-05-09 13:36 | 16.73109 | -22.94594 | 160 ft | 12 kts | 191° |
| 2026-05-09 13:36 | 16.73059 | -22.94663 | 160 ft | 14 kts | 253° |
| 2026-05-09 13:36 | 16.73020 | -22.94693 | 160 ft | 4 kts | 178° |
| 2026-05-09 13:36 | 16.72970 | -22.94690 | 160 ft | 11 kts | 179° |
| 2026-05-09 13:37 | 16.72873 | -22.94690 | 160 ft | 16 kts | 179° |
| 2026-05-09 13:37 | 16.72758 | -22.94688 | 160 ft | 17 kts | 179° |
| 2026-05-09 13:37 | 16.72635 | -22.94688 | 159 ft | 18 kts | 180° |
| 2026-05-09 13:37 | 16.72506 | -22.94687 | 159 ft | 19 kts | 180° |
| 2026-05-09 13:38 | 16.72407 | -22.94736 | 159 ft | 17 kts | 261° |
| 2026-05-09 13:38 | 16.72408 | -22.94862 | 159 ft | 16 kts | 292° |
| 2026-05-09 13:38 | 16.72497 | -22.94888 | 159 ft | 27 kts | 359° |
| 2026-05-09 13:38 | 16.73073 | -22.94892 | 162 ft | 138 kts | 359° |
| 2026-05-09 13:39 | 16.74217 | -22.94905 | 596 ft | 174 kts | 1° |
| 2026-05-09 13:39 | 16.75410 | -22.94922 | 1642 ft | 175 kts | 1° |
| 2026-05-09 13:39 | 16.76722 | -22.94933 | 2336 ft | 205 kts | 1° |
| 2026-05-09 13:39 | 16.78253 | -22.94936 | 2941 ft | 233 kts | 1° |
| 2026-05-09 13:40 | 16.79938 | -22.94941 | 3784 ft | 249 kts | 0° |
| 2026-05-09 13:40 | 16.81702 | -22.94945 | 4821 ft | 258 kts | 1° |
| 2026-05-09 13:40 | 16.83507 | -22.94722 | 5831 ft | 266 kts | 15° |
| 2026-05-09 13:40 | 16.85197 | -22.93880 | 6807 ft | 275 kts | 36° |
| 2026-05-09 13:41 | 16.86484 | -22.92373 | 7816 ft | 284 kts | 59° |
| 2026-05-09 13:41 | 16.87118 | -22.90400 | 8809 ft | 292 kts | 82° |
| 2026-05-09 13:41 | 16.87231 | -22.88259 | 9802 ft | 298 kts | 89° |
| 2026-05-09 13:41 | 16.87225 | -22.86074 | 10714 ft | 306 kts | 91° |
| 2026-05-09 13:42 | 16.87208 | -22.83815 | 11558 ft | 315 kts | 91° |
| 2026-05-09 13:42 | 16.87201 | -22.81506 | 12451 ft | 320 kts | 91° |
| 2026-05-09 13:42 | 16.87028 | -22.79181 | 13344 ft | 323 kts | 105° |
| 2026-05-09 13:42 | 16.86042 | -22.77125 | 14214 ft | 323 kts | 132° |
| 2026-05-09 13:43 | 16.84230 | -22.75758 | 15081 ft | 325 kts | 159° |
| 2026-05-09 13:43 | 16.82013 | -22.75325 | 15938 ft | 327 kts | 177° |
| 2026-05-09 13:43 | 16.79723 | -22.75265 | 16797 ft | 331 kts | 180° |
| 2026-05-09 13:43 | 16.77408 | -22.75232 | 17642 ft | 335 kts | 180° |
| 2026-05-09 13:44 | 16.75057 | -22.75174 | 18479 ft | 340 kts | 179° |
| 2026-05-09 13:44 | 16.72678 | -22.75127 | 19280 ft | 344 kts | 183° |
| 2026-05-09 13:44 | 16.70299 | -22.75500 | 20034 ft | 349 kts | 196° |
| 2026-05-09 13:44 | 16.68025 | -22.76440 | 20773 ft | 353 kts | 205° |
| 2026-05-09 13:45 | 16.65834 | -22.77646 | 21505 ft | 358 kts | 210° |
| 2026-05-09 13:45 | 16.63687 | -22.79011 | 22180 ft | 363 kts | 212° |
| 2026-05-09 13:45 | 16.61557 | -22.80458 | 22821 ft | 368 kts | 213° |
| 2026-05-09 13:45 | 16.59445 | -22.81922 | 23421 ft | 372 kts | 213° |
| 2026-05-09 13:46 | 16.57274 | -22.83421 | 23991 ft | 376 kts | 213° |
| 2026-05-09 13:46 | 16.55070 | -22.84927 | 24530 ft | 380 kts | 213° |
| 2026-05-09 13:46 | 16.52839 | -22.86431 | 25049 ft | 383 kts | 213° |
| 2026-05-09 13:46 | 16.50586 | -22.87938 | 25574 ft | 386 kts | 213° |
| 2026-05-09 13:47 | 16.48313 | -22.89446 | 26040 ft | 388 kts | 212° |
| 2026-05-09 13:47 | 16.46022 | -22.90961 | 26498 ft | 391 kts | 212° |
| 2026-05-09 13:47 | 16.43715 | -22.92488 | 26929 ft | 394 kts | 212° |
| 2026-05-09 13:47 | 16.41394 | -22.94024 | 27340 ft | 396 kts | 213° |
| 2026-05-09 13:48 | 16.39061 | -22.95569 | 27721 ft | 398 kts | 213° |
| 2026-05-09 13:48 | 16.36712 | -22.97127 | 28098 ft | 401 kts | 213° |
| 2026-05-09 13:48 | 16.34360 | -22.98684 | 28458 ft | 403 kts | 213° |
| 2026-05-09 13:48 | 16.32017 | -23.00234 | 28781 ft | 405 kts | 213° |
| 2026-05-09 13:49 | 16.29633 | -23.01809 | 29102 ft | 407 kts | 213° |
| 2026-05-09 13:49 | 16.27243 | -23.03388 | 29424 ft | 408 kts | 213° |
| 2026-05-09 13:49 | 16.24840 | -23.04977 | 29708 ft | 410 kts | 213° |
| 2026-05-09 13:49 | 16.22424 | -23.06574 | 29961 ft | 412 kts | 213° |
| 2026-05-09 13:50 | 16.20006 | -23.08173 | 30309 ft | 411 kts | 213° |
| 2026-05-09 13:50 | 16.17588 | -23.09773 | 30686 ft | 410 kts | 213° |
| 2026-05-09 13:50 | 16.15182 | -23.11363 | 31090 ft | 408 kts | 213° |
| 2026-05-09 13:50 | 16.12789 | -23.12943 | 31463 ft | 407 kts | 213° |
| 2026-05-09 13:51 | 16.10391 | -23.14526 | 31814 ft | 407 kts | 213° |
| 2026-05-09 13:51 | 16.08025 | -23.16088 | 32164 ft | 406 kts | 213° |
| 2026-05-09 13:51 | 16.05642 | -23.17659 | 32518 ft | 405 kts | 213° |
| 2026-05-09 13:51 | 16.03259 | -23.19228 | 32904 ft | 404 kts | 213° |
| 2026-05-09 13:52 | 16.00885 | -23.20793 | 33244 ft | 403 kts | 213° |
| 2026-05-09 13:52 | 15.98516 | -23.22355 | 33600 ft | 402 kts | 213° |
| 2026-05-09 13:52 | 15.96148 | -23.23915 | 33923 ft | 402 kts | 213° |
| 2026-05-09 13:52 | 15.93789 | -23.25469 | 34064 ft | 403 kts | 213° |
| 2026-05-09 13:53 | 15.89047 | -23.28589 | 34073 ft | 402 kts | 213° |
| 2026-05-09 13:53 | 15.84325 | -23.31699 | 34072 ft | 402 kts | 213° |
| 2026-05-09 13:54 | 15.79607 | -23.34803 | 34070 ft | 402 kts | 213° |
| 2026-05-09 13:54 | 15.75684 | -23.37382 | 34073 ft | 401 kts | 213° |
| 2026-05-09 13:55 | 15.70193 | -23.40989 | 34073 ft | 402 kts | 213° |
| 2026-05-09 13:55 | 15.66235 | -23.43591 | 34072 ft | 402 kts | 213° |
| 2026-05-09 13:56 | 15.61542 | -23.46668 | 34073 ft | 402 kts | 213° |
| 2026-05-09 13:56 | 15.56814 | -23.49770 | 34072 ft | 402 kts | 213° |
| 2026-05-09 13:57 | 15.52089 | -23.52870 | 34073 ft | 402 kts | 213° |
| 2026-05-09 13:57 | 15.47362 | -23.55968 | 34074 ft | 402 kts | 213° |
| 2026-05-09 13:58 | 15.42635 | -23.59062 | 34074 ft | 402 kts | 213° |
| 2026-05-09 13:58 | 15.37925 | -23.62146 | 34072 ft | 402 kts | 213° |
| 2026-05-09 13:59 | 15.33197 | -23.65241 | 34073 ft | 402 kts | 213° |
| 2026-05-09 13:59 | 15.28461 | -23.68337 | 34073 ft | 402 kts | 213° |
| 2026-05-09 14:00 | 15.24530 | -23.70907 | 34074 ft | 402 kts | 213° |
| 2026-05-09 14:00 | 15.19001 | -23.74519 | 34073 ft | 402 kts | 213° |
| 2026-05-09 14:01 | 15.14273 | -23.77604 | 34073 ft | 402 kts | 213° |
| 2026-05-09 14:01 | 15.09574 | -23.80671 | 34058 ft | 402 kts | 213° |
| 2026-05-09 14:02 | 15.04840 | -23.83759 | 34044 ft | 402 kts | 213° |
| 2026-05-09 14:02 | 15.00112 | -23.86839 | 34045 ft | 402 kts | 213° |
| 2026-05-09 14:03 | 14.95373 | -23.89926 | 34047 ft | 402 kts | 213° |
| 2026-05-09 14:03 | 14.90628 | -23.93018 | 34046 ft | 402 kts | 213° |
| 2026-05-09 14:04 | 14.85921 | -23.96079 | 34031 ft | 402 kts | 213° |
| 2026-05-09 14:04 | 14.81178 | -23.99163 | 34045 ft | 402 kts | 213° |
| 2026-05-09 14:05 | 14.76435 | -24.02247 | 34047 ft | 402 kts | 213° |
| 2026-05-09 14:05 | 14.71691 | -24.05329 | 34045 ft | 403 kts | 213° |
| 2026-05-09 14:06 | 14.66963 | -24.08397 | 34041 ft | 403 kts | 213° |
| 2026-05-09 14:06 | 14.62222 | -24.11476 | 34043 ft | 403 kts | 213° |
| 2026-05-09 14:07 | 14.57475 | -24.14566 | 34045 ft | 403 kts | 213° |
| 2026-05-09 14:07 | 14.52727 | -24.17640 | 34046 ft | 403 kts | 213° |
| 2026-05-09 14:08 | 14.47980 | -24.20711 | 34043 ft | 403 kts | 213° |
| 2026-05-09 14:08 | 14.43250 | -24.23774 | 34044 ft | 403 kts | 213° |
| 2026-05-09 14:09 | 14.38499 | -24.26846 | 34047 ft | 402 kts | 213° |
| 2026-05-09 14:09 | 14.33752 | -24.29918 | 34046 ft | 403 kts | 213° |
| 2026-05-09 14:10 | 14.26630 | -24.34528 | 34045 ft | 403 kts | 213° |
| 2026-05-09 14:11 | 14.21883 | -24.37597 | 34047 ft | 403 kts | 213° |
| 2026-05-09 14:11 | 14.17123 | -24.40670 | 34046 ft | 403 kts | 213° |
| 2026-05-09 14:12 | 14.12371 | -24.43737 | 34045 ft | 403 kts | 213° |
| 2026-05-09 14:12 | 14.07654 | -24.46781 | 34045 ft | 403 kts | 213° |
| 2026-05-09 14:13 | 14.02898 | -24.49849 | 34047 ft | 403 kts | 213° |
| 2026-05-09 14:15 | 13.83826 | -24.61917 | 34032 ft | 403 kts | 210° |
| 2026-05-09 14:15 | 13.78904 | -24.64679 | 34047 ft | 403 kts | 209° |
| 2026-05-09 14:16 | 13.73982 | -24.67429 | 34029 ft | 402 kts | 210° |
| 2026-05-09 14:16 | 13.69069 | -24.70193 | 34045 ft | 402 kts | 210° |
| 2026-05-09 14:17 | 13.64166 | -24.72964 | 34044 ft | 402 kts | 210° |
| 2026-05-09 14:17 | 13.59256 | -24.75743 | 34044 ft | 402 kts | 210° |
| 2026-05-09 14:18 | 13.54350 | -24.78518 | 34048 ft | 402 kts | 210° |
| 2026-05-09 14:18 | 13.49548 | -24.81230 | 34045 ft | 402 kts | 210° |
| 2026-05-09 14:19 | 13.44636 | -24.84002 | 34046 ft | 402 kts | 210° |
| 2026-05-09 14:19 | 13.39735 | -24.86769 | 34046 ft | 401 kts | 210° |
| 2026-05-09 14:20 | 13.34874 | -24.89512 | 34043 ft | 401 kts | 210° |
| 2026-05-09 14:20 | 13.29982 | -24.92271 | 34044 ft | 401 kts | 210° |
| 2026-05-09 14:21 | 13.22640 | -24.96404 | 34046 ft | 401 kts | 210° |
| 2026-05-09 14:21 | 13.17758 | -24.99154 | 34045 ft | 401 kts | 210° |
| 2026-05-09 14:22 | 13.12855 | -25.01916 | 34046 ft | 401 kts | 210° |
| 2026-05-09 14:22 | 13.07963 | -25.04667 | 34045 ft | 401 kts | 210° |
| 2026-05-09 14:23 | 13.03071 | -25.07418 | 34045 ft | 400 kts | 210° |
| 2026-05-09 14:23 | 12.98213 | -25.10151 | 34044 ft | 400 kts | 210° |
| 2026-05-09 14:24 | 12.93320 | -25.12904 | 34045 ft | 401 kts | 210° |
| 2026-05-09 14:24 | 12.88423 | -25.15653 | 34044 ft | 400 kts | 210° |
| 2026-05-09 14:25 | 12.83529 | -25.18400 | 34045 ft | 400 kts | 210° |
| 2026-05-09 14:25 | 12.78674 | -25.21124 | 34044 ft | 400 kts | 210° |
| 2026-05-09 14:26 | 12.73791 | -25.23861 | 34046 ft | 400 kts | 210° |
| 2026-05-09 14:26 | 12.68904 | -25.26602 | 34045 ft | 401 kts | 210° |
| 2026-05-09 14:27 | 12.64012 | -25.29343 | 34047 ft | 400 kts | 210° |
| 2026-05-09 14:27 | 12.59124 | -25.32082 | 34045 ft | 400 kts | 210° |
| 2026-05-09 14:28 | 12.54240 | -25.34817 | 34046 ft | 400 kts | 210° |
| 2026-05-09 14:28 | 12.49352 | -25.37552 | 34046 ft | 400 kts | 210° |
| 2026-05-09 14:29 | 12.44463 | -25.40288 | 34031 ft | 401 kts | 210° |
| 2026-05-09 14:29 | 12.39571 | -25.43024 | 34029 ft | 400 kts | 210° |
| 2026-05-09 14:30 | 12.34721 | -25.45736 | 34036 ft | 400 kts | 210° |
| 2026-05-09 14:30 | 12.29827 | -25.48469 | 34038 ft | 400 kts | 210° |
| 2026-05-09 14:31 | 12.24934 | -25.51202 | 34035 ft | 400 kts | 210° |
| 2026-05-09 14:31 | 12.20050 | -25.53926 | 34037 ft | 400 kts | 210° |
| 2026-05-09 14:32 | 12.15181 | -25.56644 | 34032 ft | 400 kts | 210° |
| 2026-05-09 14:32 | 12.10280 | -25.59379 | 34029 ft | 401 kts | 210° |
| 2026-05-09 14:33 | 12.05388 | -25.62106 | 34029 ft | 400 kts | 210° |
| 2026-05-09 14:33 | 12.00489 | -25.64835 | 34038 ft | 400 kts | 210° |
| 2026-05-09 14:34 | 11.95603 | -25.67557 | 34031 ft | 400 kts | 210° |
| 2026-05-09 14:34 | 11.90719 | -25.70277 | 34033 ft | 400 kts | 210° |
| 2026-05-09 14:35 | 11.85824 | -25.73002 | 34040 ft | 400 kts | 210° |
| 2026-05-09 14:35 | 11.80964 | -25.75705 | 34035 ft | 400 kts | 210° |
| 2026-05-09 14:36 | 11.76069 | -25.78428 | 34029 ft | 400 kts | 210° |
| 2026-05-09 14:36 | 11.71165 | -25.81155 | 34030 ft | 400 kts | 210° |
| 2026-05-09 14:37 | 11.66270 | -25.83875 | 34033 ft | 400 kts | 210° |
| 2026-05-09 14:37 | 11.61367 | -25.86598 | 34038 ft | 400 kts | 210° |
| 2026-05-09 14:38 | 11.56501 | -25.89300 | 34045 ft | 401 kts | 210° |
| 2026-05-09 14:38 | 11.51595 | -25.92024 | 34033 ft | 400 kts | 210° |
| 2026-05-09 14:39 | 11.46698 | -25.94739 | 34031 ft | 400 kts | 210° |
| 2026-05-09 14:39 | 11.41803 | -25.97453 | 34037 ft | 400 kts | 210° |
| 2026-05-09 14:40 | 11.36900 | -26.00170 | 34032 ft | 400 kts | 210° |
| 2026-05-09 14:40 | 11.32031 | -26.02868 | 34038 ft | 400 kts | 210° |
| 2026-05-09 14:41 | 11.27127 | -26.05589 | 34033 ft | 401 kts | 210° |
| 2026-05-09 14:41 | 11.22222 | -26.08307 | 34036 ft | 401 kts | 210° |
| 2026-05-09 14:42 | 11.18140 | -26.10566 | 34025 ft | 401 kts | 210° |
| 2026-05-09 14:42 | 11.13236 | -26.13278 | 34028 ft | 401 kts | 210° |
| 2026-05-09 14:43 | 11.08322 | -26.15994 | 34025 ft | 401 kts | 210° |
| 2026-05-09 14:43 | 11.03435 | -26.18695 | 34027 ft | 401 kts | 210° |
| 2026-05-09 14:44 | 10.98519 | -26.21412 | 34027 ft | 401 kts | 210° |
| 2026-05-09 14:44 | 10.93612 | -26.24121 | 34027 ft | 402 kts | 210° |
| 2026-05-09 14:45 | 10.88695 | -26.26837 | 34022 ft | 402 kts | 210° |
| 2026-05-09 14:45 | 10.83805 | -26.29538 | 34025 ft | 402 kts | 210° |
| 2026-05-09 14:46 | 10.78890 | -26.32249 | 34027 ft | 402 kts | 210° |
| 2026-05-09 14:46 | 10.73974 | -26.34962 | 34027 ft | 402 kts | 210° |
| 2026-05-09 14:47 | 10.69054 | -26.37675 | 34031 ft | 402 kts | 210° |
| 2026-05-09 14:47 | 10.64131 | -26.40389 | 34030 ft | 402 kts | 210° |
| 2026-05-09 14:48 | 10.59245 | -26.43079 | 34022 ft | 402 kts | 210° |
| 2026-05-09 14:48 | 10.54331 | -26.45786 | 34029 ft | 402 kts | 210° |
| 2026-05-09 14:49 | 10.49412 | -26.48492 | 34025 ft | 402 kts | 210° |
| 2026-05-09 14:49 | 10.44493 | -26.51201 | 34029 ft | 402 kts | 210° |
| 2026-05-09 14:50 | 10.39573 | -26.53910 | 34026 ft | 402 kts | 210° |
| 2026-05-09 14:50 | 10.34659 | -26.56616 | 34024 ft | 402 kts | 210° |
| 2026-05-09 14:51 | 10.29735 | -26.59324 | 34022 ft | 402 kts | 209° |
| 2026-05-09 14:51 | 10.24840 | -26.62011 | 34023 ft | 402 kts | 209° |
| 2026-05-09 14:52 | 10.19911 | -26.64718 | 34029 ft | 402 kts | 209° |
| 2026-05-09 14:52 | 10.14985 | -26.67424 | 34025 ft | 402 kts | 210° |
| 2026-05-09 14:53 | 10.10070 | -26.70124 | 34023 ft | 402 kts | 209° |
| 2026-05-09 14:53 | 10.05141 | -26.72827 | 34028 ft | 402 kts | 210° |
| 2026-05-09 14:54 | 10.00219 | -26.75528 | 34023 ft | 402 kts | 210° |
| 2026-05-09 14:54 | 9.95318 | -26.78216 | 34025 ft | 403 kts | 209° |
| 2026-05-09 14:55 | 9.90380 | -26.80924 | 34014 ft | 404 kts | 209° |
| 2026-05-09 14:55 | 9.85422 | -26.83641 | 34015 ft | 404 kts | 209° |
| 2026-05-09 14:56 | 9.80513 | -26.86332 | 34018 ft | 404 kts | 209° |
| 2026-05-09 14:56 | 9.75553 | -26.89047 | 34014 ft | 404 kts | 209° |
| 2026-05-09 14:57 | 9.70607 | -26.91754 | 34017 ft | 404 kts | 209° |
| 2026-05-09 14:57 | 9.65650 | -26.94468 | 34016 ft | 404 kts | 209° |
| 2026-05-09 14:58 | 9.60694 | -26.97182 | 34016 ft | 404 kts | 209° |
| 2026-05-09 14:58 | 9.55777 | -26.99871 | 34018 ft | 405 kts | 209° |
| 2026-05-09 14:59 | 9.50819 | -27.02582 | 34020 ft | 405 kts | 209° |
| 2026-05-09 14:59 | 9.45856 | -27.05294 | 34019 ft | 405 kts | 209° |
| 2026-05-09 15:00 | 9.40898 | -27.08002 | 34014 ft | 405 kts | 209° |
| 2026-05-09 15:00 | 9.35929 | -27.10715 | 34020 ft | 405 kts | 209° |
| 2026-05-09 15:01 | 9.28479 | -27.14784 | 34012 ft | 405 kts | 209° |
| 2026-05-09 15:02 | 9.23506 | -27.17500 | 34021 ft | 406 kts | 209° |
| 2026-05-09 15:02 | 9.18536 | -27.20212 | 34022 ft | 406 kts | 209° |
| 2026-05-09 15:03 | 9.13596 | -27.22906 | 34017 ft | 406 kts | 209° |
| 2026-05-09 15:03 | 9.08614 | -27.25621 | 34016 ft | 406 kts | 209° |
| 2026-05-09 15:04 | 9.03635 | -27.28338 | 34021 ft | 407 kts | 209° |
| 2026-05-09 15:06 | 8.83720 | -27.39181 | 34028 ft | 407 kts | 209° |
| 2026-05-09 15:06 | 8.78726 | -27.41900 | 34020 ft | 407 kts | 209° |
| 2026-05-09 15:07 | 8.73740 | -27.44614 | 34031 ft | 407 kts | 209° |
| 2026-05-09 15:07 | 8.68748 | -27.47330 | 34024 ft | 407 kts | 208° |
| 2026-05-09 15:08 | 8.63754 | -27.50044 | 34022 ft | 407 kts | 208° |
| 2026-05-09 15:08 | 8.56286 | -27.54100 | 34029 ft | 407 kts | 208° |
| 2026-05-09 15:10 | 8.36307 | -27.64956 | 34015 ft | 408 kts | 208° |
| 2026-05-09 15:11 | 8.31298 | -27.67672 | 34019 ft | 408 kts | 208° |
| 2026-05-09 15:11 | 8.26315 | -27.70376 | 34015 ft | 408 kts | 208° |
| 2026-05-09 15:12 | 8.21324 | -27.73082 | 34018 ft | 408 kts | 208° |
| 2026-05-09 15:12 | 8.16318 | -27.75797 | 34022 ft | 408 kts | 208° |
| 2026-05-09 15:13 | 8.11307 | -27.78514 | 34021 ft | 408 kts | 208° |
| 2026-05-09 15:13 | 8.06287 | -27.81234 | 34018 ft | 408 kts | 208° |
| 2026-05-09 15:14 | 8.01280 | -27.83947 | 34015 ft | 408 kts | 208° |
| 2026-05-09 15:14 | 7.96299 | -27.86644 | 34018 ft | 408 kts | 208° |
| 2026-05-09 15:15 | 7.92101 | -27.88917 | 34019 ft | 408 kts | 208° |
| 2026-05-09 15:15 | 7.86270 | -27.92073 | 34014 ft | 408 kts | 208° |
| 2026-05-09 15:16 | 7.81266 | -27.94782 | 34009 ft | 408 kts | 208° |
| 2026-05-09 15:16 | 7.76289 | -27.97472 | 33993 ft | 408 kts | 208° |
| 2026-05-09 15:17 | 7.71282 | -28.00184 | 33989 ft | 408 kts | 208° |
| 2026-05-09 15:17 | 7.66274 | -28.02893 | 33989 ft | 408 kts | 208° |
| 2026-05-09 15:18 | 7.61264 | -28.05599 | 33989 ft | 408 kts | 208° |
| 2026-05-09 15:18 | 7.56254 | -28.08305 | 33990 ft | 408 kts | 208° |
| 2026-05-09 15:19 | 7.51237 | -28.11016 | 33990 ft | 408 kts | 208° |
| 2026-05-09 15:19 | 7.46225 | -28.13722 | 33991 ft | 409 kts | 208° |
| 2026-05-09 15:20 | 7.38728 | -28.17771 | 33990 ft | 409 kts | 208° |
| 2026-05-09 15:21 | 7.33715 | -28.20480 | 33989 ft | 409 kts | 208° |
| 2026-05-09 15:21 | 7.28698 | -28.23186 | 33989 ft | 408 kts | 208° |
| 2026-05-09 15:22 | 7.23682 | -28.25892 | 33989 ft | 408 kts | 208° |
| 2026-05-09 15:22 | 7.18704 | -28.28576 | 33990 ft | 408 kts | 208° |
| 2026-05-09 15:23 | 7.13696 | -28.31274 | 33989 ft | 408 kts | 208° |
| 2026-05-09 15:23 | 7.08679 | -28.33979 | 33991 ft | 408 kts | 208° |
| 2026-05-09 15:24 | 7.03670 | -28.36679 | 33989 ft | 408 kts | 208° |
| 2026-05-09 15:24 | 6.98652 | -28.39382 | 33991 ft | 408 kts | 208° |
| 2026-05-09 15:25 | 6.93670 | -28.42067 | 33991 ft | 409 kts | 208° |
| 2026-05-09 15:25 | 6.88644 | -28.44772 | 33989 ft | 408 kts | 208° |
| 2026-05-09 15:26 | 6.81130 | -28.48817 | 33989 ft | 408 kts | 208° |
| 2026-05-09 15:26 | 6.76114 | -28.51518 | 33991 ft | 408 kts | 208° |
| 2026-05-09 15:27 | 6.71096 | -28.54218 | 33989 ft | 408 kts | 207° |
| 2026-05-09 15:27 | 6.66121 | -28.56897 | 33991 ft | 408 kts | 207° |
| 2026-05-09 15:28 | 6.61105 | -28.59592 | 33989 ft | 408 kts | 207° |
| 2026-05-09 15:28 | 6.56091 | -28.62287 | 33990 ft | 409 kts | 207° |
| 2026-05-09 15:29 | 6.51069 | -28.64985 | 34000 ft | 409 kts | 207° |
| 2026-05-09 15:29 | 6.46888 | -28.67232 | 33991 ft | 409 kts | 207° |
| 2026-05-09 15:30 | 6.41876 | -28.69926 | 33989 ft | 409 kts | 207° |
| 2026-05-09 15:30 | 6.36854 | -28.72624 | 33990 ft | 408 kts | 207° |
| 2026-05-09 15:31 | 6.31867 | -28.75302 | 33989 ft | 408 kts | 207° |
| 2026-05-09 15:31 | 6.26849 | -28.77997 | 33991 ft | 408 kts | 207° |
| 2026-05-09 15:32 | 6.21837 | -28.80687 | 33990 ft | 408 kts | 207° |
| 2026-05-09 15:32 | 6.16820 | -28.83380 | 33991 ft | 408 kts | 207° |
| 2026-05-09 15:33 | 6.11803 | -28.86074 | 33989 ft | 408 kts | 207° |
| 2026-05-09 15:33 | 6.06785 | -28.88766 | 33989 ft | 408 kts | 207° |
| 2026-05-09 15:34 | 6.01815 | -28.91430 | 33992 ft | 408 kts | 207° |
| 2026-05-09 15:34 | 5.96798 | -28.94120 | 33990 ft | 409 kts | 207° |
| 2026-05-09 15:35 | 5.91772 | -28.96814 | 33989 ft | 410 kts | 207° |
| 2026-05-09 15:35 | 5.86746 | -28.99508 | 33989 ft | 409 kts | 207° |
| 2026-05-09 15:36 | 5.81715 | -29.02205 | 33989 ft | 409 kts | 207° |
| 2026-05-09 15:36 | 5.76685 | -29.04900 | 33989 ft | 409 kts | 207° |
| 2026-05-09 15:37 | 5.71652 | -29.07597 | 33990 ft | 410 kts | 207° |
| 2026-05-09 15:37 | 5.66660 | -29.10273 | 33990 ft | 409 kts | 207° |
| 2026-05-09 15:38 | 5.61619 | -29.12972 | 33990 ft | 410 kts | 207° |
| 2026-05-09 15:38 | 5.56578 | -29.15670 | 33990 ft | 410 kts | 207° |
| 2026-05-09 15:39 | 5.51573 | -29.18350 | 33983 ft | 410 kts | 207° |
| 2026-05-09 15:39 | 5.46536 | -29.21046 | 33980 ft | 410 kts | 207° |
| 2026-05-09 15:40 | 5.41506 | -29.23736 | 33981 ft | 410 kts | 207° |
| 2026-05-09 15:40 | 5.36462 | -29.26437 | 33979 ft | 410 kts | 207° |
| 2026-05-09 15:41 | 5.31427 | -29.29129 | 33981 ft | 410 kts | 207° |
| 2026-05-09 15:41 | 5.26415 | -29.31805 | 33981 ft | 410 kts | 207° |
| 2026-05-09 15:42 | 5.21374 | -29.34502 | 33980 ft | 410 kts | 207° |
| 2026-05-09 15:42 | 5.16335 | -29.37198 | 33981 ft | 410 kts | 207° |
| 2026-05-09 15:43 | 5.11285 | -29.39897 | 33980 ft | 410 kts | 207° |
| 2026-05-09 15:43 | 5.06278 | -29.42573 | 33981 ft | 410 kts | 207° |
| 2026-05-09 15:44 | 5.01239 | -29.45264 | 33980 ft | 411 kts | 207° |
| 2026-05-09 15:44 | 4.96178 | -29.47968 | 33980 ft | 411 kts | 207° |
| 2026-05-09 15:45 | 4.91130 | -29.50664 | 33981 ft | 411 kts | 207° |
| 2026-05-09 15:45 | 4.86074 | -29.53367 | 33981 ft | 411 kts | 207° |
| 2026-05-09 15:46 | 4.81057 | -29.56043 | 33981 ft | 411 kts | 207° |
| 2026-05-09 15:46 | 4.75996 | -29.58743 | 33980 ft | 411 kts | 207° |
| 2026-05-09 15:47 | 4.70946 | -29.61438 | 33980 ft | 411 kts | 207° |
| 2026-05-09 15:47 | 4.65887 | -29.64138 | 33980 ft | 412 kts | 207° |
| 2026-05-09 15:48 | 4.60826 | -29.66839 | 33980 ft | 412 kts | 207° |
| 2026-05-09 15:48 | 4.55769 | -29.69536 | 33981 ft | 412 kts | 207° |
| 2026-05-09 15:49 | 4.50735 | -29.72220 | 33980 ft | 412 kts | 207° |
| 2026-05-09 15:49 | 4.45665 | -29.74927 | 33982 ft | 413 kts | 207° |
| 2026-05-09 15:50 | 4.40595 | -29.77631 | 33980 ft | 412 kts | 207° |
| 2026-05-09 15:50 | 4.35528 | -29.80330 | 33980 ft | 412 kts | 207° |
| 2026-05-09 15:51 | 4.30467 | -29.83028 | 33981 ft | 412 kts | 207° |
| 2026-05-09 15:51 | 4.25398 | -29.85732 | 33981 ft | 412 kts | 207° |
| 2026-05-09 15:52 | 4.17828 | -29.89766 | 33981 ft | 412 kts | 207° |
| 2026-05-09 15:53 | 4.12753 | -29.92469 | 33980 ft | 412 kts | 207° |
| 2026-05-09 15:53 | 4.07680 | -29.95170 | 33981 ft | 412 kts | 207° |
| 2026-05-09 15:54 | 4.02609 | -29.97871 | 33980 ft | 412 kts | 207° |
| 2026-05-09 15:54 | 3.97539 | -30.00569 | 33980 ft | 412 kts | 207° |
| 2026-05-09 15:55 | 3.92494 | -30.03252 | 33980 ft | 413 kts | 207° |
| 2026-05-09 15:55 | 3.87430 | -30.05943 | 33980 ft | 412 kts | 207° |
| 2026-05-09 15:56 | 3.82360 | -30.08636 | 33980 ft | 412 kts | 207° |
| 2026-05-09 15:56 | 3.77284 | -30.11334 | 33979 ft | 413 kts | 207° |
| 2026-05-09 15:57 | 3.72210 | -30.14032 | 33980 ft | 413 kts | 207° |
| 2026-05-09 15:57 | 3.67131 | -30.16732 | 33980 ft | 413 kts | 207° |
| 2026-05-09 15:58 | 3.62084 | -30.19413 | 33981 ft | 413 kts | 207° |
| 2026-05-09 15:58 | 3.57007 | -30.22109 | 33980 ft | 413 kts | 207° |
| 2026-05-09 15:59 | 3.51928 | -30.24806 | 33980 ft | 412 kts | 207° |
| 2026-05-09 15:59 | 3.46855 | -30.27501 | 33980 ft | 413 kts | 207° |
| 2026-05-09 16:00 | 3.41780 | -30.30196 | 33980 ft | 413 kts | 207° |
| 2026-05-09 16:00 | 3.36693 | -30.32898 | 33980 ft | 413 kts | 207° |
| 2026-05-09 16:01 | 3.31611 | -30.35596 | 33979 ft | 413 kts | 207° |
| 2026-05-09 16:01 | 3.26562 | -30.38276 | 33981 ft | 413 kts | 207° |
| 2026-05-09 16:02 | 3.21477 | -30.40976 | 33968 ft | 413 kts | 207° |
| 2026-05-09 16:02 | 3.13871 | -30.45012 | 33974 ft | 414 kts | 207° |
| 2026-05-09 16:03 | 3.08781 | -30.47714 | 33970 ft | 413 kts | 207° |
| 2026-05-09 16:03 | 3.03684 | -30.50417 | 33972 ft | 414 kts | 207° |
| 2026-05-09 16:04 | 2.98594 | -30.53116 | 33975 ft | 414 kts | 207° |
| 2026-05-09 16:04 | 2.93503 | -30.55816 | 33969 ft | 414 kts | 207° |
| 2026-05-09 16:05 | 2.88440 | -30.58501 | 33970 ft | 414 kts | 207° |
| 2026-05-09 16:05 | 2.83346 | -30.61203 | 33967 ft | 414 kts | 207° |
| 2026-05-09 16:06 | 2.78251 | -30.63904 | 33975 ft | 414 kts | 207° |
| 2026-05-09 16:06 | 2.73159 | -30.66606 | 33969 ft | 414 kts | 207° |
| 2026-05-09 16:07 | 2.68065 | -30.69309 | 33969 ft | 414 kts | 207° |
| 2026-05-09 16:07 | 2.62998 | -30.71994 | 33971 ft | 415 kts | 207° |
| 2026-05-09 16:08 | 2.57897 | -30.74696 | 33971 ft | 414 kts | 207° |
| 2026-05-09 16:08 | 2.52793 | -30.77401 | 33969 ft | 414 kts | 207° |
| 2026-05-09 16:09 | 2.47701 | -30.80102 | 33973 ft | 415 kts | 207° |
| 2026-05-09 16:09 | 2.42592 | -30.82809 | 33968 ft | 415 kts | 207° |
| 2026-05-09 16:10 | 2.37487 | -30.85513 | 33972 ft | 415 kts | 207° |
| 2026-05-09 16:10 | 2.32420 | -30.88197 | 33973 ft | 415 kts | 207° |
| 2026-05-09 16:11 | 2.27317 | -30.90899 | 33974 ft | 415 kts | 207° |
| 2026-05-09 16:11 | 2.22217 | -30.93601 | 33968 ft | 415 kts | 207° |
| 2026-05-09 16:12 | 2.17109 | -30.96305 | 33967 ft | 415 kts | 207° |
| 2026-05-09 16:12 | 2.11997 | -30.99012 | 33969 ft | 415 kts | 207° |
| 2026-05-09 16:13 | 2.06931 | -31.01694 | 33975 ft | 415 kts | 207° |
| 2026-05-09 16:13 | 2.01824 | -31.04398 | 33975 ft | 415 kts | 207° |
| 2026-05-09 16:14 | 1.96725 | -31.07097 | 33975 ft | 415 kts | 207° |
| 2026-05-09 16:14 | 1.91621 | -31.09799 | 33967 ft | 415 kts | 207° |
| 2026-05-09 16:15 | 1.86510 | -31.12502 | 33972 ft | 415 kts | 207° |
| 2026-05-09 16:15 | 1.81402 | -31.15206 | 33972 ft | 415 kts | 207° |
| 2026-05-09 16:16 | 1.76288 | -31.17913 | 33975 ft | 415 kts | 207° |
| 2026-05-09 16:16 | 1.71214 | -31.20599 | 33953 ft | 415 kts | 207° |
| 2026-05-09 16:17 | 1.66105 | -31.23302 | 33925 ft | 415 kts | 207° |
| 2026-05-09 16:17 | 1.60994 | -31.26007 | 33924 ft | 415 kts | 207° |
| 2026-05-09 16:18 | 1.56745 | -31.28255 | 33925 ft | 415 kts | 207° |
| 2026-05-09 16:18 | 1.51631 | -31.30960 | 33925 ft | 415 kts | 207° |
| 2026-05-09 16:19 | 1.46519 | -31.33664 | 33924 ft | 415 kts | 207° |
| 2026-05-09 16:19 | 1.41413 | -31.36367 | 33925 ft | 416 kts | 207° |
| 2026-05-09 16:20 | 1.36293 | -31.39077 | 33925 ft | 416 kts | 207° |
| 2026-05-09 16:20 | 1.31208 | -31.41763 | 33925 ft | 416 kts | 207° |
| 2026-05-09 16:21 | 1.26098 | -31.44466 | 33925 ft | 416 kts | 207° |
| 2026-05-09 16:21 | 1.20972 | -31.47177 | 33924 ft | 416 kts | 207° |
| 2026-05-09 16:22 | 1.15848 | -31.49887 | 33925 ft | 415 kts | 207° |
| 2026-05-09 16:22 | 1.10771 | -31.52573 | 33924 ft | 415 kts | 207° |
| 2026-05-09 16:23 | 1.05662 | -31.55275 | 33924 ft | 415 kts | 207° |
| 2026-05-09 16:23 | 1.00556 | -31.57977 | 33925 ft | 415 kts | 207° |
| 2026-05-09 16:24 | 0.95450 | -31.60677 | 33925 ft | 415 kts | 207° |
| 2026-05-09 16:24 | 0.90340 | -31.63378 | 33925 ft | 415 kts | 207° |
| 2026-05-09 16:25 | 0.85234 | -31.66075 | 33925 ft | 415 kts | 207° |
| 2026-05-09 16:25 | 0.80131 | -31.68773 | 33925 ft | 415 kts | 207° |
| 2026-05-09 16:26 | 0.75057 | -31.71457 | 33924 ft | 415 kts | 207° |
| 2026-05-09 16:26 | 0.69957 | -31.74156 | 33925 ft | 415 kts | 207° |
| 2026-05-09 16:27 | 0.64852 | -31.76855 | 33925 ft | 415 kts | 207° |
| 2026-05-09 16:27 | 0.59752 | -31.79550 | 33925 ft | 415 kts | 207° |
| 2026-05-09 16:28 | 0.54647 | -31.82248 | 33924 ft | 415 kts | 207° |
| 2026-05-09 16:28 | 0.49538 | -31.84950 | 33925 ft | 415 kts | 207° |
| 2026-05-09 16:29 | 0.44437 | -31.87647 | 33924 ft | 415 kts | 207° |
| 2026-05-09 16:29 | 0.39364 | -31.90329 | 33924 ft | 415 kts | 207° |
| 2026-05-09 16:30 | 0.34262 | -31.93028 | 33925 ft | 414 kts | 207° |
| 2026-05-09 16:30 | 0.29158 | -31.95728 | 33925 ft | 415 kts | 208° |
| 2026-05-09 16:31 | 0.24055 | -31.98428 | 33916 ft | 414 kts | 208° |
| 2026-05-09 16:31 | 0.18954 | -32.01126 | 33916 ft | 414 kts | 208° |
| 2026-05-09 16:32 | 0.14715 | -32.03366 | 33919 ft | 415 kts | 207° |
| 2026-05-09 16:32 | 0.08784 | -32.06502 | 33915 ft | 415 kts | 208° |
| 2026-05-09 16:33 | 0.03683 | -32.09202 | 33916 ft | 414 kts | 207° |
| 2026-05-09 16:33 | -0.01414 | -32.11898 | 33915 ft | 415 kts | 208° |
| 2026-05-09 16:34 | -0.06523 | -32.14601 | 33914 ft | 414 kts | 208° |
| 2026-05-09 16:34 | -0.11590 | -32.17284 | 33916 ft | 414 kts | 208° |
| 2026-05-09 16:35 | -0.16688 | -32.19980 | 33916 ft | 414 kts | 208° |
| 2026-05-09 16:35 | -0.21798 | -32.22680 | 33916 ft | 415 kts | 207° |
| 2026-05-09 16:36 | -0.31976 | -32.28063 | 33917 ft | 415 kts | 208° |
| 2026-05-09 16:37 | -0.37103 | -32.30775 | 33914 ft | 414 kts | 208° |
| 2026-05-09 16:37 | -0.42173 | -32.33459 | 33916 ft | 414 kts | 208° |
| 2026-05-09 16:38 | -0.47265 | -32.36153 | 33916 ft | 414 kts | 207° |
| 2026-05-09 16:38 | -0.52366 | -32.38850 | 33915 ft | 414 kts | 207° |
| 2026-05-09 16:39 | -0.57470 | -32.41549 | 33915 ft | 414 kts | 208° |
| 2026-05-09 16:39 | -0.62563 | -32.44243 | 33925 ft | 414 kts | 207° |
| 2026-05-09 16:40 | -0.67633 | -32.46926 | 33925 ft | 414 kts | 208° |